createdAt,value
2022-10-09T00:01:03.731Z,88.46
2022-10-09T00:03:33.581Z,88.29
2022-10-09T00:06:03.157Z,88.74
2022-10-09T00:08:32.865Z,88.62
2022-10-09T00:11:08.170Z,88.95
2022-10-09T00:13:37.831Z,89.31
2022-10-09T00:16:09.771Z,88.88
2022-10-09T00:18:40.017Z,89.28
2022-10-09T00:21:20.716Z,89.54
2022-10-09T00:23:50.885Z,89.21
2022-10-09T00:26:22.425Z,89.54
2022-10-09T00:28:52.061Z,89.47
2022-10-09T00:31:22.099Z,89.65
2022-10-09T00:33:52.187Z,89.82
2022-10-09T00:36:24.805Z,89.58
2022-10-09T00:38:55.592Z,89.52
2022-10-09T00:41:30.771Z,89.63
2022-10-09T00:44:02.866Z,89.41
2022-10-09T00:46:41.327Z,89.83
2022-10-09T00:51:41.851Z,89.67
2022-10-09T00:54:15.163Z,89.36
2022-10-09T00:56:44.872Z,89.69
2022-10-09T00:59:15.886Z,89.85
2022-10-09T01:01:45.931Z,89.94
2022-10-09T01:04:16.508Z,90.03
2022-10-09T01:07:05.267Z,89.78
2022-10-09T01:09:43.979Z,89.68
2022-10-09T01:12:23.788Z,90.27
2022-10-09T01:15:05.570Z,90.20
2022-10-09T01:17:42.733Z,90.18
2022-10-09T01:20:36.369Z,90.28
2022-10-09T01:23:37.210Z,90.07
2022-10-09T01:26:26.328Z,90.15
2022-10-09T01:29:03.184Z,90.03
2022-10-09T01:31:37.472Z,89.91
2022-10-09T01:34:09.592Z,89.77
2022-10-09T01:36:41.169Z,90.37
2022-10-09T01:39:15.223Z,90.30
2022-10-09T01:41:44.837Z,89.93
2022-10-09T01:44:25.143Z,89.82
2022-10-09T01:46:54.986Z,89.75
2022-10-09T01:49:43.511Z,89.96
2022-10-09T01:52:41.335Z,90.06
2022-10-09T01:55:32.112Z,90.42
2022-10-09T01:58:09.691Z,90.25
2022-10-09T02:00:46.589Z,90.15
2022-10-09T02:03:18.689Z,90.16
2022-10-09T02:05:52.476Z,90.10
2022-10-09T02:08:24.996Z,90.12
2022-10-09T02:10:58.911Z,91.11
2022-10-09T02:13:28.509Z,90.64
2022-10-09T02:16:08.062Z,90.21
2022-10-09T02:18:43.819Z,90.35
2022-10-09T02:21:20.050Z,90.32
2022-10-09T02:23:51.372Z,90.28
2022-10-09T02:26:21.863Z,89.60
2022-10-09T02:28:51.435Z,90.38
2022-10-09T02:31:27.843Z,90.63
2022-10-09T02:33:58.938Z,90.51
2022-10-09T02:36:30.679Z,90.38
2022-10-09T02:39:01.044Z,90.72
2022-10-09T02:41:31.028Z,90.46
2022-10-09T02:44:00.376Z,90.25
2022-10-09T02:46:31.254Z,90.61
2022-10-09T02:49:00.941Z,90.43
2022-10-09T02:51:30.228Z,90.67
2022-10-09T02:54:00.046Z,90.92
2022-10-09T02:56:29.928Z,90.59
2022-10-09T02:59:00.033Z,90.65
2022-10-09T03:01:31.017Z,90.58
2022-10-09T03:04:00.441Z,90.67
2022-10-09T03:06:31.446Z,90.62
2022-10-09T03:09:00.907Z,90.48
2022-10-09T03:11:30.184Z,90.56
2022-10-09T03:13:59.607Z,90.77
2022-10-09T03:16:30.877Z,90.95
2022-10-09T03:19:00.466Z,90.87
2022-10-09T03:21:31.130Z,90.46
2022-10-09T03:24:00.572Z,90.78
2022-10-09T03:26:30.567Z,90.90
2022-10-09T03:29:00.030Z,90.42
2022-10-09T03:31:51.149Z,90.75
2022-10-09T03:34:20.640Z,90.91
2022-10-09T03:36:50.407Z,90.91
2022-10-09T03:39:19.855Z,90.71
2022-10-09T03:41:49.224Z,91.18
2022-10-09T03:44:18.871Z,90.77
2022-10-09T03:46:49.779Z,90.94
2022-10-09T03:52:41.606Z,90.78
2022-10-09T03:55:11.667Z,90.56
2022-10-09T03:57:41.227Z,90.96
2022-10-09T04:00:12.982Z,91.16
2022-10-09T04:02:42.339Z,90.08
2022-10-09T04:05:11.905Z,90.51
2022-10-09T04:07:42.569Z,90.86
2022-10-09T04:10:12.956Z,90.83
2022-10-09T04:12:42.311Z,90.67
2022-10-09T04:15:12.728Z,90.83
2022-10-09T04:17:42.067Z,90.94
2022-10-09T04:20:12.009Z,90.90
2022-10-09T04:22:42.739Z,90.92
2022-10-09T04:25:12.346Z,91.17
2022-10-09T04:27:41.718Z,91.25
2022-10-09T04:30:12.667Z,91.54
2022-10-09T04:32:42.013Z,91.52
2022-10-09T04:35:11.798Z,91.93
2022-10-09T04:37:42.626Z,91.53
2022-10-09T04:40:12.467Z,91.50
2022-10-09T04:42:41.787Z,91.34
2022-10-09T04:45:12.462Z,91.39
2022-10-09T04:47:41.825Z,91.75
2022-10-09T04:50:12.305Z,91.40
2022-10-09T04:52:43.162Z,91.51
2022-10-09T04:55:12.667Z,91.35
2022-10-09T04:57:43.234Z,91.65
2022-10-09T05:00:15.209Z,92.07
2022-10-09T05:02:44.504Z,91.71
2022-10-09T05:05:14.284Z,91.72
2022-10-09T05:07:45.086Z,91.94
2022-10-09T05:10:14.444Z,91.67
2022-10-09T05:12:43.900Z,92.02
2022-10-09T05:15:13.510Z,91.99
2022-10-09T05:17:42.826Z,92.05
2022-10-09T05:20:12.843Z,91.74
2022-10-09T05:22:44.904Z,92.03
2022-10-09T05:25:14.609Z,92.00
2022-10-09T05:27:44.068Z,91.44
2022-10-09T05:30:14.307Z,91.32
2022-10-09T05:32:43.811Z,91.24
2022-10-09T05:35:13.047Z,90.87
2022-10-09T05:37:43.848Z,90.71
2022-10-09T05:40:13.526Z,89.96
2022-10-09T05:42:42.838Z,89.88
2022-10-09T05:45:13.214Z,89.42
2022-10-09T05:47:42.613Z,89.13
2022-10-09T05:50:12.166Z,88.72
2022-10-09T05:52:41.587Z,89.22
2022-10-09T05:55:12.601Z,89.77
2022-10-09T05:57:41.940Z,91.38
2022-10-09T06:00:13.590Z,92.86
2022-10-09T06:02:43.064Z,93.20
2022-10-09T06:05:12.785Z,93.23
2022-10-09T06:07:42.290Z,93.88
2022-10-09T06:10:13.605Z,94.01
2022-10-09T06:12:43.154Z,94.57
2022-10-09T06:15:13.223Z,95.02
2022-10-09T06:17:42.515Z,95.64
2022-10-09T06:20:12.354Z,96.23
2022-10-09T06:22:41.709Z,96.27
2022-10-09T06:25:12.820Z,96.54
2022-10-09T06:27:42.407Z,97.28
2022-10-09T06:30:13.305Z,97.35
2022-10-09T06:32:42.734Z,97.66
2022-10-09T06:35:13.631Z,98.34
2022-10-09T06:37:42.993Z,98.32
2022-10-09T06:40:13.989Z,98.44
2022-10-09T06:42:43.287Z,98.91
2022-10-09T06:45:13.169Z,97.30
2022-10-09T06:47:42.569Z,95.26
2022-10-09T06:52:41.230Z,92.82
2022-10-09T06:55:11.096Z,90.73
2022-10-09T06:57:40.573Z,89.51
2022-10-09T07:00:11.586Z,88.90
2022-10-09T07:02:44.224Z,86.33
2022-10-09T07:05:13.755Z,85.05
2022-10-09T07:07:44.889Z,81.83
2022-10-09T07:10:14.375Z,81.22
2022-10-09T07:12:43.727Z,80.29
2022-10-09T07:15:13.529Z,78.65
2022-10-09T07:17:42.850Z,78.29
2022-10-09T07:20:12.385Z,76.78
2022-10-09T07:22:43.492Z,76.06
2022-10-09T07:25:13.302Z,75.42
2022-10-09T07:27:42.649Z,74.78
2022-10-09T07:30:13.397Z,74.29
2022-10-09T07:32:42.719Z,73.44
2022-10-09T07:35:12.437Z,71.89
2022-10-09T07:37:41.746Z,71.64
2022-10-09T07:40:13.336Z,70.84
2022-10-09T07:42:42.696Z,69.17
2022-10-09T07:45:12.874Z,70.04
2022-10-09T07:47:42.170Z,69.44
2022-10-09T07:50:11.703Z,68.07
2022-10-09T07:52:40.975Z,67.27
2022-10-09T07:55:12.271Z,65.80
2022-10-09T07:57:41.629Z,65.03
2022-10-09T08:00:13.182Z,66.00
2022-10-09T08:02:42.538Z,64.62
2022-10-09T08:05:12.890Z,64.89
2022-10-09T08:07:42.608Z,63.36
2022-10-09T08:10:14.111Z,63.23
2022-10-09T08:12:43.514Z,62.56
2022-10-09T08:15:13.418Z,62.20
2022-10-09T08:17:42.839Z,62.73
2022-10-09T08:20:12.559Z,62.18
2022-10-09T08:22:41.934Z,61.96
2022-10-09T08:25:13.204Z,61.58
2022-10-09T08:27:42.924Z,61.15
2022-10-09T08:30:13.332Z,60.54
2022-10-09T08:32:42.847Z,60.07
2022-10-09T08:35:12.350Z,59.76
2022-10-09T08:37:41.786Z,59.89
2022-10-09T08:40:22.836Z,58.82
2022-10-09T08:43:00.448Z,59.86
2022-10-09T08:45:30.505Z,59.27
2022-10-09T08:48:04.508Z,58.82
2022-10-09T08:50:38.395Z,58.77
2022-10-09T08:53:18.230Z,58.38
2022-10-09T08:55:55.230Z,58.46
2022-10-09T08:58:31.989Z,58.38
2022-10-09T09:01:06.728Z,56.13
2022-10-09T09:03:59.768Z,56.93
2022-10-09T09:06:39.714Z,57.75
2022-10-09T09:09:19.909Z,57.21
2022-10-09T09:11:56.343Z,56.64
2022-10-09T09:14:40.330Z,56.01
2022-10-09T09:17:19.011Z,54.86
2022-10-09T09:20:02.336Z,57.24
2022-10-09T09:22:34.554Z,57.72
2022-10-09T09:25:16.370Z,57.53
2022-10-09T09:27:48.082Z,57.62
2022-10-09T09:30:22.569Z,56.46
2022-10-09T09:33:01.029Z,57.19
2022-10-09T09:35:47.016Z,57.42
2022-10-09T09:38:16.917Z,57.26
2022-10-09T09:40:47.590Z,56.75
2022-10-09T09:43:22.574Z,55.25
2022-10-09T09:45:56.693Z,56.47
2022-10-09T09:48:40.490Z,56.80
2022-10-09T09:52:46.551Z,56.78
2022-10-09T09:55:28.767Z,57.23
2022-10-09T09:58:04.984Z,56.59
2022-10-09T10:00:35.471Z,57.34
2022-10-09T10:03:12.633Z,56.51
2022-10-09T10:05:44.281Z,56.57
2022-10-09T10:08:26.612Z,55.34
2022-10-09T10:11:00.149Z,56.21
2022-10-09T10:13:38.187Z,56.53
2022-10-09T10:16:09.495Z,56.42
2022-10-09T10:18:44.410Z,56.12
2022-10-09T10:21:17.551Z,53.94
2022-10-09T10:23:55.902Z,55.52
2022-10-09T10:26:31.073Z,55.70
2022-10-09T10:29:05.331Z,57.53
2022-10-09T10:31:48.069Z,57.62
2022-10-09T10:34:24.852Z,57.73
2022-10-09T10:37:03.705Z,56.86
2022-10-09T10:39:43.452Z,53.86
2022-10-09T10:42:20.776Z,55.69
2022-10-09T10:44:59.706Z,55.15
2022-10-09T10:47:33.944Z,54.46
2022-10-09T10:50:05.667Z,54.12
2022-10-09T10:52:48.292Z,55.38
2022-10-09T10:55:33.833Z,54.37
2022-10-09T10:58:18.769Z,53.33
2022-10-09T11:01:02.325Z,54.18
2022-10-09T11:03:45.949Z,54.41
2022-10-09T11:06:22.370Z,54.21
2022-10-09T11:09:11.206Z,54.00
2022-10-09T11:11:49.449Z,54.41
2022-10-09T11:14:37.172Z,52.36
2022-10-09T11:17:18.902Z,53.34
2022-10-09T11:20:18.476Z,54.18
2022-10-09T11:23:07.769Z,53.56
2022-10-09T11:25:44.084Z,52.08
2022-10-09T11:28:20.247Z,51.12
2022-10-09T11:30:59.110Z,52.75
2022-10-09T11:33:36.282Z,51.79
2022-10-09T11:36:14.187Z,49.41
2022-10-09T11:38:48.928Z,50.49
2022-10-09T11:41:18.606Z,51.75
2022-10-09T11:44:09.667Z,50.67
2022-10-09T11:46:47.447Z,50.51
2022-10-09T11:49:26.129Z,50.24
2022-10-09T11:52:04.501Z,49.89
2022-10-09T11:54:35.507Z,50.28
2022-10-09T11:57:10.553Z,49.07
2022-10-09T11:59:45.447Z,49.38
2022-10-09T12:02:28.479Z,50.22
2022-10-09T12:04:58.228Z,49.28
2022-10-09T12:07:35.284Z,50.27
2022-10-09T12:10:10.385Z,50.94
2022-10-09T12:12:39.893Z,50.17
2022-10-09T12:15:29.794Z,50.98
2022-10-09T12:17:59.349Z,49.31
2022-10-09T12:20:30.629Z,50.10
2022-10-09T12:23:25.233Z,50.37
2022-10-09T12:25:52.118Z,48.68
2022-10-09T12:28:29.768Z,49.66
2022-10-09T12:31:05.018Z,50.99
2022-10-09T12:33:42.222Z,49.61
2022-10-09T12:36:16.410Z,50.75
2022-10-09T12:38:46.222Z,49.33
2022-10-09T12:41:22.233Z,50.14
2022-10-09T12:43:54.582Z,51.13
2022-10-09T12:46:36.494Z,52.06
2022-10-09T12:52:51.923Z,51.23
2022-10-09T12:55:29.481Z,51.52
2022-10-09T12:58:03.566Z,52.27
2022-10-09T13:00:34.849Z,53.50
2022-10-09T13:03:04.234Z,54.83
2022-10-09T13:05:41.911Z,55.23
2022-10-09T13:08:26.947Z,55.58
2022-10-09T13:10:56.836Z,57.14
2022-10-09T13:13:30.054Z,56.33
2022-10-09T13:16:06.481Z,56.09
2022-10-09T13:18:36.230Z,56.42
2022-10-09T13:21:20.730Z,57.64
2022-10-09T13:23:51.975Z,57.21
2022-10-09T13:26:27.522Z,57.27
2022-10-09T13:28:59.510Z,58.59
2022-10-09T13:31:28.810Z,58.28
2022-10-09T13:33:58.130Z,57.80
2022-10-09T13:36:27.613Z,57.50
2022-10-09T13:38:58.418Z,57.89
2022-10-09T13:41:27.950Z,58.07
2022-10-09T13:43:57.351Z,57.02
2022-10-09T13:46:26.995Z,57.54
2022-10-09T13:48:56.425Z,58.38
2022-10-09T13:51:25.891Z,58.75
2022-10-09T13:53:56.932Z,59.08
2022-10-09T13:56:26.429Z,60.77
2022-10-09T13:58:55.914Z,61.98
2022-10-09T14:01:25.375Z,62.12
2022-10-09T14:03:54.776Z,62.82
2022-10-09T14:06:24.292Z,62.74
2022-10-09T14:08:54.115Z,63.34
2022-10-09T14:11:24.992Z,63.18
2022-10-09T14:13:54.399Z,63.06
2022-10-09T14:16:23.910Z,64.19
2022-10-09T14:18:56.244Z,63.78
2022-10-09T14:21:25.393Z,63.13
2022-10-09T14:23:59.120Z,63.78
2022-10-09T14:26:30.715Z,64.82
2022-10-09T14:29:03.412Z,65.00
2022-10-09T14:31:32.855Z,65.66
2022-10-09T14:34:02.177Z,65.81
2022-10-09T14:36:31.855Z,65.98
2022-10-09T14:39:02.269Z,66.09
2022-10-09T14:41:37.453Z,65.98
2022-10-09T14:44:07.494Z,66.09
2022-10-09T14:46:38.051Z,66.38
2022-10-09T14:49:09.366Z,66.46
2022-10-09T14:51:41.190Z,67.07
2022-10-09T14:54:12.246Z,67.12
2022-10-09T14:56:43.085Z,67.38
2022-10-09T14:59:12.574Z,67.41
2022-10-09T15:01:41.994Z,67.38
2022-10-09T15:04:11.454Z,67.35
2022-10-09T15:06:40.842Z,67.50
2022-10-09T15:09:10.273Z,68.09
2022-10-09T15:11:39.807Z,68.69
2022-10-09T15:14:10.642Z,68.86
2022-10-09T15:16:40.236Z,69.40
2022-10-09T15:19:09.635Z,69.84
2022-10-09T15:21:39.352Z,70.06
2022-10-09T15:24:08.704Z,70.67
2022-10-09T15:26:38.977Z,70.54
2022-10-09T15:29:10.969Z,71.31
2022-10-09T15:31:42.240Z,71.33
2022-10-09T15:34:18.789Z,71.59
2022-10-09T15:36:49.077Z,71.49
2022-10-09T15:39:18.556Z,72.07
2022-10-09T15:41:49.135Z,72.60
2022-10-09T15:44:23.199Z,73.45
2022-10-09T15:46:52.532Z,73.80
2022-10-09T15:52:40.940Z,75.10
2022-10-09T15:55:10.731Z,75.36
2022-10-09T15:57:40.054Z,76.00
2022-10-09T16:00:11.275Z,76.08
2022-10-09T16:02:40.623Z,76.62
2022-10-09T16:05:10.940Z,77.34
2022-10-09T16:07:41.736Z,77.58
2022-10-09T16:10:12.075Z,78.08
2022-10-09T16:12:41.479Z,78.43
2022-10-09T16:15:12.261Z,79.45
2022-10-09T16:17:42.186Z,79.34
2022-10-09T16:20:12.341Z,80.03
2022-10-09T16:22:43.143Z,80.17
2022-10-09T16:25:13.190Z,80.27
2022-10-09T16:27:42.631Z,80.47
2022-10-09T16:30:14.229Z,80.91
2022-10-09T16:32:43.593Z,81.04
2022-10-09T16:35:12.954Z,81.46
2022-10-09T16:37:43.886Z,81.67
2022-10-09T16:40:14.031Z,82.23
2022-10-09T16:42:43.467Z,82.38
2022-10-09T16:45:13.285Z,82.41
2022-10-09T16:47:44.542Z,82.43
2022-10-09T16:50:14.371Z,82.55
2022-10-09T16:52:45.140Z,82.86
2022-10-09T16:55:14.405Z,82.64
2022-10-09T16:57:43.837Z,83.13
2022-10-09T17:00:18.982Z,83.61
2022-10-09T17:02:48.551Z,83.76
2022-10-09T17:05:18.029Z,83.28
2022-10-09T17:07:49.112Z,83.14
2022-10-09T17:10:18.833Z,83.73
2022-10-09T17:12:48.149Z,83.80
2022-10-09T17:15:17.656Z,83.93
2022-10-09T17:17:47.119Z,84.46
2022-10-09T17:20:16.773Z,84.47
2022-10-09T17:22:48.911Z,84.29
2022-10-09T17:25:18.746Z,84.23
2022-10-09T17:27:49.070Z,84.02
2022-10-09T17:30:18.463Z,84.49
2022-10-09T17:32:48.085Z,84.31
2022-10-09T17:35:18.038Z,84.33
2022-10-09T17:37:48.858Z,84.30
2022-10-09T17:40:18.447Z,84.52
2022-10-09T17:42:47.886Z,84.55
2022-10-09T17:45:17.609Z,84.42
2022-10-09T17:47:47.050Z,85.12
2022-10-09T17:50:16.408Z,84.99
2022-10-09T17:52:47.637Z,85.27
2022-10-09T17:55:17.248Z,85.06
2022-10-09T17:57:46.784Z,85.16
2022-10-09T18:00:21.691Z,85.18
2022-10-09T18:02:51.397Z,84.90
2022-10-09T18:05:20.811Z,85.03
2022-10-09T18:07:51.882Z,85.08
2022-10-09T18:10:21.638Z,85.27
2022-10-09T18:12:51.037Z,85.50
2022-10-09T18:15:20.513Z,85.75
2022-10-09T18:17:50.054Z,86.21
2022-10-09T18:20:19.938Z,86.19
2022-10-09T18:22:50.972Z,86.21
2022-10-09T18:25:20.489Z,85.77
2022-10-09T18:27:50.362Z,85.94
2022-10-09T18:30:20.839Z,86.14
2022-10-09T18:32:50.407Z,86.28
2022-10-09T18:35:20.017Z,86.38
2022-10-09T18:37:50.789Z,85.65
2022-10-09T18:40:21.312Z,85.67
2022-10-09T18:42:50.909Z,85.50
2022-10-09T18:45:20.635Z,86.44
2022-10-09T18:47:50.229Z,85.91
2022-10-09T18:52:42.485Z,85.92
2022-10-09T18:55:14.069Z,86.64
2022-10-09T18:57:44.470Z,87.77
2022-10-09T19:00:16.389Z,87.65
2022-10-09T19:02:45.911Z,87.17
2022-10-09T19:05:15.326Z,88.00
2022-10-09T19:07:46.197Z,88.76
2022-10-09T19:10:16.707Z,88.43
2022-10-09T19:12:46.683Z,88.27
2022-10-09T19:15:16.167Z,88.70
2022-10-09T19:17:45.452Z,88.05
2022-10-09T19:20:14.772Z,87.74
2022-10-09T19:22:45.871Z,87.70
2022-10-09T19:25:15.462Z,87.73
2022-10-09T19:27:44.726Z,87.79
2022-10-09T19:30:15.391Z,87.18
2022-10-09T19:32:44.710Z,87.13
2022-10-09T19:35:15.269Z,87.30
2022-10-09T19:37:46.087Z,87.41
2022-10-09T19:40:15.315Z,87.51
2022-10-09T19:42:44.871Z,86.94
2022-10-09T19:45:14.352Z,86.78
2022-10-09T19:47:43.657Z,86.94
2022-10-09T19:50:15.140Z,87.24
2022-10-09T19:52:48.477Z,87.45
2022-10-09T19:55:19.092Z,88.04
2022-10-09T19:57:48.702Z,87.93
2022-10-09T20:00:18.872Z,87.89
2022-10-09T20:02:48.589Z,87.68
2022-10-09T20:05:18.215Z,87.41
2022-10-09T20:07:49.071Z,87.12
2022-10-09T20:10:18.955Z,87.72
2022-10-09T20:12:48.641Z,87.11
2022-10-09T20:15:20.027Z,86.75
2022-10-09T20:17:49.370Z,86.63
2022-10-09T20:20:18.888Z,87.23
2022-10-09T20:22:49.767Z,87.16
2022-10-09T20:25:19.376Z,86.66
2022-10-09T20:27:48.737Z,86.52
2022-10-09T20:30:18.986Z,88.08
2022-10-09T20:32:49.413Z,87.23
2022-10-09T20:35:19.221Z,87.02
2022-10-09T20:37:50.069Z,86.68
2022-10-09T20:40:19.568Z,87.42
2022-10-09T20:42:49.043Z,88.28
2022-10-09T20:45:19.010Z,87.74
2022-10-09T20:47:50.211Z,87.72
2022-10-09T20:50:19.548Z,87.83
2022-10-09T20:52:50.615Z,87.75
2022-10-09T20:55:20.333Z,87.57
2022-10-09T20:57:54.182Z,87.98
2022-10-09T21:00:24.329Z,87.74
2022-10-09T21:02:53.568Z,87.75
2022-10-09T21:05:23.031Z,88.01
2022-10-09T21:07:53.835Z,88.90
2022-10-09T21:10:23.232Z,89.73
2022-10-09T21:12:52.819Z,89.32
2022-10-09T21:15:22.351Z,88.70
2022-10-09T21:17:51.650Z,89.97
2022-10-09T21:20:21.630Z,93.01
2022-10-09T21:22:52.741Z,92.76
2022-10-09T21:25:22.163Z,93.34
2022-10-09T21:27:51.471Z,92.46
2022-10-09T21:30:20.957Z,94.84
2022-10-09T21:32:50.478Z,93.96
2022-10-09T21:35:20.180Z,94.15
2022-10-09T21:37:50.031Z,93.96
2022-10-09T21:40:20.991Z,93.13
2022-10-09T21:42:50.561Z,92.56
2022-10-09T21:45:20.251Z,91.68
2022-10-09T21:47:49.656Z,91.03
2022-10-09T21:52:40.604Z,90.25
2022-10-09T21:55:10.608Z,89.61
2022-10-09T21:57:39.836Z,89.20
2022-10-09T22:00:11.335Z,89.76
2022-10-09T22:02:40.949Z,89.26
2022-10-09T22:05:11.347Z,89.45
2022-10-09T22:07:42.245Z,89.06
2022-10-09T22:10:12.508Z,88.94
2022-10-09T22:12:41.778Z,89.28
2022-10-09T22:15:12.215Z,89.06
2022-10-09T22:17:41.548Z,89.07
2022-10-09T22:20:11.457Z,89.06
2022-10-09T22:22:42.161Z,88.81
2022-10-09T22:25:11.958Z,89.24
2022-10-09T22:27:41.290Z,88.86
2022-10-09T22:30:12.767Z,89.11
2022-10-09T22:32:42.130Z,88.65
2022-10-09T22:35:11.790Z,88.72
2022-10-09T22:37:42.809Z,89.03
2022-10-09T22:40:12.947Z,88.83
2022-10-09T22:42:42.297Z,89.18
2022-10-09T22:45:12.626Z,89.40
2022-10-09T22:47:41.952Z,89.63
2022-10-09T22:50:12.210Z,89.85
2022-10-09T22:52:42.982Z,90.27
2022-10-09T22:55:12.450Z,89.86
2022-10-09T22:57:41.732Z,90.20
2022-10-09T23:00:13.417Z,90.58
2022-10-09T23:02:42.649Z,90.83
2022-10-09T23:05:12.250Z,91.37
2022-10-09T23:07:42.966Z,91.00
2022-10-09T23:10:12.526Z,90.90
2022-10-09T23:12:41.748Z,91.12
2022-10-09T23:15:12.183Z,91.18
2022-10-09T23:17:41.527Z,91.32
2022-10-09T23:20:11.774Z,91.04
2022-10-09T23:22:42.632Z,91.42
2022-10-09T23:25:12.648Z,91.88
2022-10-09T23:27:42.108Z,91.24
2022-10-09T23:30:12.970Z,91.47
2022-10-09T23:32:42.271Z,92.00
2022-10-09T23:35:11.897Z,91.47
2022-10-09T23:37:43.287Z,91.49
2022-10-09T23:40:12.831Z,91.60
2022-10-09T23:42:42.315Z,91.26
2022-10-09T23:45:12.468Z,91.45
2022-10-09T23:47:42.082Z,92.21
2022-10-09T23:50:12.068Z,92.03
2022-10-09T23:52:42.890Z,92.31
2022-10-09T23:55:12.403Z,91.88
2022-10-09T23:57:41.729Z,92.06
